sensor_id;sensor_type;location;lat;lon;timestamp;pressure;altitude;pressure_sealevel;temperature;humidity
14295;BME280;7231;59.370;18.016;2023-08-31T00:01:53;100250.50;;;13.52;100.00
14295;BME280;7231;59.370;18.016;2023-08-31T00:04:23;100254.00;;;13.51;100.00
14295;BME280;7231;59.370;18.016;2023-08-31T00:06:51;100241.69;;;13.45;100.00
14295;BME280;7231;59.370;18.016;2023-08-31T00:09:19;100228.47;;;13.38;100.00
14295;BME280;7231;59.370;18.016;2023-08-31T00:11:47;100226.72;;;13.38;100.00
14295;BME280;7231;59.370;18.016;2023-08-31T00:14:15;100245.19;;;13.46;100.00
14295;BME280;7231;59.370;18.016;2023-08-31T00:16:43;100248.69;;;13.45;100.00
14295;BME280;7231;59.370;18.016;2023-08-31T00:19:13;100253.97;;;13.45;100.00
14295;BME280;7231;59.370;18.016;2023-08-31T00:21:43;100241.63;;;13.38;100.00
14295;BME280;7231;59.370;18.016;2023-08-31T00:24:11;100247.81;;;13.44;100.00
14295;BME280;7231;59.370;18.016;2023-08-31T00:26:39;100253.97;;;13.45;100.00
14295;BME280;7231;59.370;18.016;2023-08-31T00:29:09;100255.72;;;13.46;100.00
14295;BME280;7231;59.370;18.016;2023-08-31T00:31:37;100249.59;;;13.45;100.00
14295;BME280;7231;59.370;18.016;2023-08-31T00:34:06;100244.28;;;13.41;100.00
14295;BME280;7231;59.370;18.016;2023-08-31T00:36:33;100253.09;;;13.47;100.00
14295;BME280;7231;59.370;18.016;2023-08-31T00:39:04;100245.19;;;13.47;100.00
14295;BME280;7231;59.370;18.016;2023-08-31T00:41:35;100236.41;;;13.44;100.00
14295;BME280;7231;59.370;18.016;2023-08-31T00:44:04;100221.44;;;13.37;100.00
14295;BME280;7231;59.370;18.016;2023-08-31T00:46:32;100232.00;;;13.44;100.00
14295;BME280;7231;59.370;18.016;2023-08-31T00:49:00;100226.75;;;13.44;100.00
14295;BME280;7231;59.370;18.016;2023-08-31T00:51:30;100222.31;;;13.39;100.00
14295;BME280;7231;59.370;18.016;2023-08-31T00:53:58;100228.50;;;13.44;100.00
14295;BME280;7231;59.370;18.016;2023-08-31T00:56:28;100231.16;;;13.45;100.00
14295;BME280;7231;59.370;18.016;2023-08-31T00:58:56;100234.66;;;13.44;100.00
14295;BME280;7231;59.370;18.016;2023-08-31T01:01:28;100238.16;;;13.46;100.00
14295;BME280;7231;59.370;18.016;2023-08-31T01:04:10;100231.16;;;13.47;100.00
14295;BME280;7231;59.370;18.016;2023-08-31T01:06:51;100225.00;;;13.46;100.00
14295;BME280;7231;59.370;18.016;2023-08-31T01:09:28;100223.25;;;13.47;100.00
14295;BME280;7231;59.370;18.016;2023-08-31T01:12:03;100203.84;;;13.34;100.00
14295;BME280;7231;59.370;18.016;2023-08-31T01:14:34;100217.97;;;13.47;100.00
14295;BME280;7231;59.370;18.016;2023-08-31T01:17:05;100192.44;;;13.30;100.00
14295;BME280;7231;59.370;18.016;2023-08-31T01:19:46;100229.41;;;13.47;100.00
14295;BME280;7231;59.370;18.016;2023-08-31T01:22:25;100224.09;;;13.40;100.00
14295;BME280;7231;59.370;18.016;2023-08-31T01:24:59;100240.81;;;13.49;100.00
14295;BME280;7231;59.370;18.016;2023-08-31T01:27:30;100231.16;;;13.50;100.00
14295;BME280;7231;59.370;18.016;2023-08-31T01:29:59;100202.97;;;13.33;100.00
14295;BME280;7231;59.370;18.016;2023-08-31T01:32:27;100227.66;;;13.51;100.00
14295;BME280;7231;59.370;18.016;2023-08-31T01:34:55;100200.41;;;13.41;100.00
14295;BME280;7231;59.370;18.016;2023-08-31T01:37:31;100222.41;;;13.51;100.00
14295;BME280;7231;59.370;18.016;2023-08-31T01:40:07;100225.03;;;13.51;100.00
14295;BME280;7231;59.370;18.016;2023-08-31T01:42:38;100213.63;;;13.50;100.00
14295;BME280;7231;59.370;18.016;2023-08-31T01:45:08;100218.91;;;13.52;100.00
14295;BME280;7231;59.370;18.016;2023-08-31T01:47:38;100220.66;;;13.53;100.00
14295;BME280;7231;59.370;18.016;2023-08-31T01:50:07;100205.69;;;13.46;100.00
14295;BME280;7231;59.370;18.016;2023-08-31T01:52:35;100193.38;;;13.40;100.00
14295;BME280;7231;59.370;18.016;2023-08-31T01:55:05;100177.50;;;13.31;100.00
14295;BME280;7231;59.370;18.016;2023-08-31T01:57:33;100219.78;;;13.55;100.00
14295;BME280;7231;59.370;18.016;2023-08-31T02:00:02;100136.06;;;12.98;100.00
14295;BME280;7231;59.370;18.016;2023-08-31T02:02:32;100228.56;;;13.54;100.00
14295;BME280;7231;59.370;18.016;2023-08-31T02:05:01;100234.72;;;13.55;100.00
14295;BME280;7231;59.370;18.016;2023-08-31T02:07:30;100232.09;;;13.55;100.00
14295;BME280;7231;59.370;18.016;2023-08-31T02:09:58;100229.44;;;13.55;100.00
14295;BME280;7231;59.370;18.016;2023-08-31T02:12:28;100226.81;;;13.55;100.00
14295;BME280;7231;59.370;18.016;2023-08-31T02:14:56;100232.94;;;13.54;100.00
14295;BME280;7231;59.370;18.016;2023-08-31T02:17:24;100222.41;;;13.51;100.00
14295;BME280;7231;59.370;18.016;2023-08-31T02:19:52;100225.94;;;13.53;100.00
14295;BME280;7231;59.370;18.016;2023-08-31T02:22:20;100213.63;;;13.50;100.00
14295;BME280;7231;59.370;18.016;2023-08-31T02:24:48;100218.00;;;13.50;100.00
14295;BME280;7231;59.370;18.016;2023-08-31T02:27:16;100201.28;;;13.45;100.00
14295;BME280;7231;59.370;18.016;2023-08-31T02:29:45;100214.47;;;13.48;100.00
14295;BME280;7231;59.370;18.016;2023-08-31T02:32:13;100210.13;;;13.53;100.00
14295;BME280;7231;59.370;18.016;2023-08-31T02:34:41;100203.06;;;13.49;100.00
14295;BME280;7231;59.370;18.016;2023-08-31T02:37:09;100215.38;;;13.51;100.00
14295;BME280;7231;59.370;18.016;2023-08-31T02:39:37;100210.97;;;13.50;100.00
14295;BME280;7231;59.370;18.016;2023-08-31T02:42:05;100212.75;;;13.51;100.00
14295;BME280;7231;59.370;18.016;2023-08-31T02:44:34;100212.75;;;13.51;100.00
14295;BME280;7231;59.370;18.016;2023-08-31T02:47:04;100210.13;;;13.53;100.00
14295;BME280;7231;59.370;18.016;2023-08-31T02:49:32;100210.13;;;13.53;100.00
14295;BME280;7231;59.370;18.016;2023-08-31T02:52:00;100197.78;;;13.44;100.00
14295;BME280;7231;59.370;18.016;2023-08-31T02:54:29;100216.28;;;13.53;100.00
14295;BME280;7231;59.370;18.016;2023-08-31T02:56:56;100219.78;;;13.54;100.00
14295;BME280;7231;59.370;18.016;2023-08-31T02:59:24;100211.00;;;13.53;100.00
14295;BME280;7231;59.370;18.016;2023-08-31T03:01:53;100201.31;;;13.46;100.00
14295;BME280;7231;59.370;18.016;2023-08-31T03:04:22;100212.75;;;13.54;100.00
14295;BME280;7231;59.370;18.016;2023-08-31T03:06:50;100214.50;;;13.52;100.00
14295;BME280;7231;59.370;18.016;2023-08-31T03:09:19;100194.25;;;13.42;100.00
14295;BME280;7231;59.370;18.016;2023-08-31T03:11:47;100181.91;;;13.33;100.00
14295;BME280;7231;59.370;18.016;2023-08-31T03:14:15;100219.78;;;13.51;100.00
14295;BME280;7231;59.370;18.016;2023-08-31T03:16:43;100205.72;;;13.49;100.00
14295;BME280;7231;59.370;18.016;2023-08-31T03:19:12;100211.84;;;13.48;100.00
14295;BME280;7231;59.370;18.016;2023-08-31T03:21:41;100184.53;;;13.32;100.00
14295;BME280;7231;59.370;18.016;2023-08-31T03:24:09;100211.81;;;13.42;100.00
14295;BME280;7231;59.370;18.016;2023-08-31T03:26:37;100206.53;;;13.39;100.00
14295;BME280;7231;59.370;18.016;2023-08-31T03:29:05;100216.16;;;13.37;100.00
14295;BME280;7231;59.370;18.016;2023-08-31T03:31:33;100180.91;;;13.16;100.00
14295;BME280;7231;59.370;18.016;2023-08-31T03:34:01;100200.31;;;13.27;100.00
14295;BME280;7231;59.370;18.016;2023-08-31T03:36:29;100202.06;;;13.30;100.00
14295;BME280;7231;59.370;18.016;2023-08-31T03:38:58;100203.78;;;13.25;100.00
14295;BME280;7231;59.370;18.016;2023-08-31T03:41:26;100207.31;;;13.25;100.00
14295;BME280;7231;59.370;18.016;2023-08-31T03:43:54;100203.78;;;13.25;100.00
14295;BME280;7231;59.370;18.016;2023-08-31T03:46:22;100204.66;;;13.22;100.00
14295;BME280;7231;59.370;18.016;2023-08-31T03:48:51;100178.19;;;13.07;100.00
14295;BME280;7231;59.370;18.016;2023-08-31T03:51:19;100193.25;;;13.23;100.00
14295;BME280;7231;59.370;18.016;2023-08-31T03:53:47;100190.63;;;13.25;100.00
14295;BME280;7231;59.370;18.016;2023-08-31T03:56:16;100195.03;;;13.26;100.00
14295;BME280;7231;59.370;18.016;2023-08-31T03:58:44;100183.63;;;13.28;100.00
14295;BME280;7231;59.370;18.016;2023-08-31T04:01:12;100180.97;;;13.25;100.00
14295;BME280;7231;59.370;18.016;2023-08-31T04:03:42;100183.66;;;13.31;100.00
14295;BME280;7231;59.370;18.016;2023-08-31T04:06:10;100175.75;;;13.28;100.00
14295;BME280;7231;59.370;18.016;2023-08-31T04:08:38;100187.19;;;13.37;100.00
14295;BME280;7231;59.370;18.016;2023-08-31T04:11:06;100195.13;;;13.41;100.00
14295;BME280;7231;59.370;18.016;2023-08-31T04:13:35;100166.06;;;13.26;100.00
14295;BME280;7231;59.370;18.016;2023-08-31T04:16:04;100210.09;;;13.50;100.00
14295;BME280;7231;59.370;18.016;2023-08-31T04:18:32;100212.75;;;13.54;100.00
14295;BME280;7231;59.370;18.016;2023-08-31T04:21:00;100213.66;;;13.58;100.00
14295;BME280;7231;59.370;18.016;2023-08-31T04:23:30;100221.59;;;13.62;100.00
14295;BME280;7231;59.370;18.016;2023-08-31T04:25:59;100217.22;;;13.64;100.00
14295;BME280;7231;59.370;18.016;2023-08-31T04:28:27;100218.13;;;13.71;100.00
14295;BME280;7231;59.370;18.016;2023-08-31T04:30:56;100162.69;;;13.47;100.00
14295;BME280;7231;59.370;18.016;2023-08-31T04:33:24;100219.94;;;13.80;100.00
14295;BME280;7231;59.370;18.016;2023-08-31T04:35:53;100192.66;;;13.73;100.00
14295;BME280;7231;59.370;18.016;2023-08-31T04:38:21;100206.78;;;13.87;100.00
14295;BME280;7231;59.370;18.016;2023-08-31T04:40:49;100211.19;;;13.91;100.00
14295;BME280;7231;59.370;18.016;2023-08-31T04:43:17;100215.63;;;13.95;100.00
14295;BME280;7231;59.370;18.016;2023-08-31T04:45:45;100202.44;;;13.98;100.00
14295;BME280;7231;59.370;18.016;2023-08-31T04:48:15;100196.31;;;14.01;100.00
14295;BME280;7231;59.370;18.016;2023-08-31T04:50:43;100200.69;;;14.02;100.00
14295;BME280;7231;59.370;18.016;2023-08-31T04:53:11;100193.66;;;14.00;100.00
14295;BME280;7231;59.370;18.016;2023-08-31T04:55:39;100197.19;;;14.06;100.00
14295;BME280;7231;59.370;18.016;2023-08-31T04:58:07;100203.38;;;14.10;100.00
14295;BME280;7231;59.370;18.016;2023-08-31T05:00:35;100195.47;;;14.14;100.00
14295;BME280;7231;59.370;18.016;2023-08-31T05:03:04;100195.50;;;14.20;100.00
14295;BME280;7231;59.370;18.016;2023-08-31T05:05:34;100199.03;;;14.24;100.00
14295;BME280;7231;59.370;18.016;2023-08-31T05:08:02;100192.00;;;14.27;100.00
14295;BME280;7231;59.370;18.016;2023-08-31T05:10:31;100193.78;;;14.38;100.00
14295;BME280;7231;59.370;18.016;2023-08-31T05:12:59;100195.59;;;14.42;100.00
14295;BME280;7231;59.370;18.016;2023-08-31T05:15:27;100182.41;;;14.46;100.00
14295;BME280;7231;59.370;18.016;2023-08-31T05:17:55;100185.94;;;14.60;100.00
14295;BME280;7231;59.370;18.016;2023-08-31T05:20:23;100179.78;;;14.66;100.00
14295;BME280;7231;59.370;18.016;2023-08-31T05:22:53;100150.75;;;14.52;100.00
14295;BME280;7231;59.370;18.016;2023-08-31T05:25:21;100194.75;;;14.78;100.00
14295;BME280;7231;59.370;18.016;2023-08-31T05:27:49;100188.59;;;14.88;100.00
14295;BME280;7231;59.370;18.016;2023-08-31T05:30:17;100179.81;;;14.92;100.00
14295;BME280;7231;59.370;18.016;2023-08-31T05:32:45;100178.03;;;14.99;100.00
14295;BME280;7231;59.370;18.016;2023-08-31T05:35:13;100187.72;;;15.13;100.00
14295;BME280;7231;59.370;18.016;2023-08-31T05:37:41;100186.81;;;15.22;100.00
14295;BME280;7231;59.370;18.016;2023-08-31T05:40:11;100195.63;;;15.30;100.00
14295;BME280;7231;59.370;18.016;2023-08-31T05:42:40;100154.25;;;15.12;100.00
14295;BME280;7231;59.370;18.016;2023-08-31T05:45:08;100195.59;;;15.41;100.00
14295;BME280;7231;59.370;18.016;2023-08-31T05:47:38;100193.81;;;15.46;100.00
14295;BME280;7231;59.370;18.016;2023-08-31T05:50:07;100199.97;;;15.49;100.00
14295;BME280;7231;59.370;18.016;2023-08-31T05:52:35;100203.50;;;15.51;100.00
14295;BME280;7231;59.370;18.016;2023-08-31T05:55:04;100198.22;;;15.51;100.00
14295;BME280;7231;59.370;18.016;2023-08-31T05:57:34;100208.78;;;15.54;100.00
14295;BME280;7231;59.370;18.016;2023-08-31T06:00:05;100214.97;;;15.58;100.00
14295;BME280;7231;59.370;18.016;2023-08-31T06:02:33;100217.63;;;15.58;100.00
14295;BME280;7231;59.370;18.016;2023-08-31T06:05:02;100225.50;;;15.61;100.00
14295;BME280;7231;59.370;18.016;2023-08-31T06:07:31;100225.50;;;15.64;100.00
14295;BME280;7231;59.370;18.016;2023-08-31T06:09:58;100229.00;;;15.65;100.00
14295;BME280;7231;59.370;18.016;2023-08-31T06:12:26;100233.44;;;15.61;100.00
14295;BME280;7231;59.370;18.016;2023-08-31T06:14:56;100228.13;;;15.63;100.00
14295;BME280;7231;59.370;18.016;2023-08-31T06:17:24;100224.63;;;15.62;100.00
14295;BME280;7231;59.370;18.016;2023-08-31T06:19:52;100234.28;;;15.68;100.00
14295;BME280;7231;59.370;18.016;2023-08-31T06:22:20;100202.63;;;15.49;100.00
14295;BME280;7231;59.370;18.016;2023-08-31T06:24:49;100232.50;;;15.83;100.00
14295;BME280;7231;59.370;18.016;2023-08-31T06:27:18;100228.03;;;15.96;100.00
14295;BME280;7231;59.370;18.016;2023-08-31T06:29:46;100242.09;;;16.12;100.00
14295;BME280;7231;59.370;18.016;2023-08-31T06:32:16;100237.59;;;16.26;100.00
14295;BME280;7231;59.370;18.016;2023-08-31T06:34:44;100238.47;;;16.31;100.00
14295;BME280;7231;59.370;18.016;2023-08-31T06:37:12;100235.78;;;16.37;100.00
14295;BME280;7231;59.370;18.016;2023-08-31T06:39:40;100234.81;;;16.55;100.00
14295;BME280;7231;59.370;18.016;2023-08-31T06:42:08;100233.81;;;16.79;100.00
14295;BME280;7231;59.370;18.016;2023-08-31T06:44:36;100224.81;;;17.01;100.00
14295;BME280;7231;59.370;18.016;2023-08-31T06:47:04;100208.75;;;17.23;100.00
14295;BME280;7231;59.370;18.016;2023-08-31T06:49:33;100224.38;;;17.50;100.00
14295;BME280;7231;59.370;18.016;2023-08-31T06:52:02;100222.47;;;17.66;98.66
14295;BME280;7231;59.370;18.016;2023-08-31T06:54:40;100224.06;;;17.82;97.83
14295;BME280;7231;59.370;18.016;2023-08-31T06:57:09;100226.59;;;17.93;96.50
14295;BME280;7231;59.370;18.016;2023-08-31T06:59:36;100208.88;;;17.95;95.68
14295;BME280;7231;59.370;18.016;2023-08-31T07:02:05;100209.78;;;17.95;94.44
14295;BME280;7231;59.370;18.016;2023-08-31T07:04:34;100209.94;;;17.80;94.04
14295;BME280;7231;59.370;18.016;2023-08-31T07:07:02;100214.47;;;17.70;93.59
14295;BME280;7231;59.370;18.016;2023-08-31T07:09:31;100214.53;;;17.61;94.26
14295;BME280;7231;59.370;18.016;2023-08-31T07:12:00;100215.31;;;17.74;95.24
14295;BME280;7231;59.370;18.016;2023-08-31T07:14:29;100210.59;;;17.99;95.03
14295;BME280;7231;59.370;18.016;2023-08-31T07:16:57;100217.44;;;18.18;95.00
14295;BME280;7231;59.370;18.016;2023-08-31T07:19:25;100199.28;;;18.49;94.32
14295;BME280;7231;59.370;18.016;2023-08-31T07:21:55;100214.78;;;18.79;90.59
14295;BME280;7231;59.370;18.016;2023-08-31T07:24:23;100217.44;;;18.81;89.32
14295;BME280;7231;59.370;18.016;2023-08-31T07:26:51;100216.38;;;18.91;88.63
14295;BME280;7231;59.370;18.016;2023-08-31T07:29:19;100205.31;;;19.17;88.51
14295;BME280;7231;59.370;18.016;2023-08-31T07:31:47;100212.31;;;19.72;87.54
14295;BME280;7231;59.370;18.016;2023-08-31T07:34:16;100204.44;;;20.10;85.30
14295;BME280;7231;59.370;18.016;2023-08-31T07:36:44;100201.00;;;20.49;82.97
14295;BME280;7231;59.370;18.016;2023-08-31T07:39:13;100200.94;;;20.87;81.22
14295;BME280;7231;59.370;18.016;2023-08-31T07:41:44;100190.59;;;21.45;80.40
14295;BME280;7231;59.370;18.016;2023-08-31T07:44:12;100203.72;;;22.17;77.96
14295;BME280;7231;59.370;18.016;2023-08-31T07:46:40;100197.22;;;22.83;74.77
14295;BME280;7231;59.370;18.016;2023-08-31T07:49:08;100201.03;;;23.29;72.24
14295;BME280;7231;59.370;18.016;2023-08-31T07:51:36;100191.75;;;23.89;70.68
14295;BME280;7231;59.370;18.016;2023-08-31T07:54:04;100192.03;;;24.30;67.67
14295;BME280;7231;59.370;18.016;2023-08-31T07:56:34;100184.66;;;24.58;64.86
14295;BME280;7231;59.370;18.016;2023-08-31T07:59:02;100192.91;;;24.75;63.37
14295;BME280;7231;59.370;18.016;2023-08-31T08:01:31;100188.34;;;24.77;62.56
14295;BME280;7231;59.370;18.016;2023-08-31T08:03:59;100172.00;;;24.83;62.51
14295;BME280;7231;59.370;18.016;2023-08-31T08:06:27;100192.19;;;25.36;60.89
14295;BME280;7231;59.370;18.016;2023-08-31T08:08:55;100190.91;;;25.85;59.56
14295;BME280;7231;59.370;18.016;2023-08-31T08:11:23;100182.16;;;26.19;58.67
14295;BME280;7231;59.370;18.016;2023-08-31T08:13:52;100175.66;;;26.43;56.78
14295;BME280;7231;59.370;18.016;2023-08-31T08:16:20;100180.59;;;26.52;56.10
14295;BME280;7231;59.370;18.016;2023-08-31T08:18:49;100183.19;;;26.73;55.23
14295;BME280;7231;59.370;18.016;2023-08-31T08:21:20;100172.03;;;26.80;54.73
14295;BME280;7231;59.370;18.016;2023-08-31T08:23:48;100184.06;;;27.09;54.11
14295;BME280;7231;59.370;18.016;2023-08-31T08:26:17;100185.66;;;27.13;52.62
14295;BME280;7231;59.370;18.016;2023-08-31T08:28:45;100186.47;;;26.61;52.46
14295;BME280;7231;59.370;18.016;2023-08-31T08:31:14;100173.41;;;26.34;52.80
14295;BME280;7231;59.370;18.016;2023-08-31T08:33:45;100175.22;;;26.34;52.90
14295;BME280;7231;59.370;18.016;2023-08-31T08:36:13;100178.28;;;26.45;52.71
14295;BME280;7231;59.370;18.016;2023-08-31T08:38:42;100167.88;;;26.37;53.12
14295;BME280;7231;59.370;18.016;2023-08-31T08:41:10;100174.38;;;26.69;52.38
14295;BME280;7231;59.370;18.016;2023-08-31T08:43:43;100173.22;;;27.11;50.97
14295;BME280;7231;59.370;18.016;2023-08-31T08:46:11;100161.91;;;27.39;50.71
14295;BME280;7231;59.370;18.016;2023-08-31T08:48:41;100169.34;;;27.51;49.56
14295;BME280;7231;59.370;18.016;2023-08-31T08:51:10;100173.25;;;27.63;49.49
14295;BME280;7231;59.370;18.016;2023-08-31T08:53:40;100165.63;;;28.04;48.41
14295;BME280;7231;59.370;18.016;2023-08-31T08:56:10;100171.28;;;28.32;48.59
14295;BME280;7231;59.370;18.016;2023-08-31T08:58:38;100162.06;;;28.52;47.48
14295;BME280;7231;59.370;18.016;2023-08-31T09:01:07;100165.72;;;28.51;47.32
14295;BME280;7231;59.370;18.016;2023-08-31T09:03:36;100163.47;;;28.43;47.41
14295;BME280;7231;59.370;18.016;2023-08-31T09:06:05;100166.88;;;28.77;43.94
14295;BME280;7231;59.370;18.016;2023-08-31T09:08:35;100170.28;;;28.81;45.81
14295;BME280;7231;59.370;18.016;2023-08-31T09:11:04;100161.94;;;29.01;45.64
14295;BME280;7231;59.370;18.016;2023-08-31T09:13:33;100158.31;;;29.16;44.96
14295;BME280;7231;59.370;18.016;2023-08-31T09:16:01;100160.94;;;29.18;44.80
14295;BME280;7231;59.370;18.016;2023-08-31T09:18:31;100152.78;;;29.03;44.93
14295;BME280;7231;59.370;18.016;2023-08-31T09:21:00;100125.97;;;29.00;44.75
14295;BME280;7231;59.370;18.016;2023-08-31T09:23:30;100153.19;;;29.12;44.15
14295;BME280;7231;59.370;18.016;2023-08-31T09:25:58;100168.22;;;28.86;43.91
14295;BME280;7231;59.370;18.016;2023-08-31T09:28:27;100162.59;;;28.59;44.06
14295;BME280;7231;59.370;18.016;2023-08-31T09:31:04;100166.53;;;28.20;43.50
14295;BME280;7231;59.370;18.016;2023-08-31T09:33:34;100164.97;;;27.83;43.77
14295;BME280;7231;59.370;18.016;2023-08-31T09:36:02;100163.72;;;27.73;44.99
14295;BME280;7231;59.370;18.016;2023-08-31T09:38:41;100157.47;;;28.05;44.12
14295;BME280;7231;59.370;18.016;2023-08-31T09:41:10;100162.59;;;28.43;44.22
14295;BME280;7231;59.370;18.016;2023-08-31T09:43:38;100163.94;;;28.97;44.03
14295;BME280;7231;59.370;18.016;2023-08-31T09:46:06;100159.13;;;29.32;42.84
14295;BME280;7231;59.370;18.016;2023-08-31T09:48:35;100161.84;;;29.62;42.04
14295;BME280;7231;59.370;18.016;2023-08-31T09:51:05;100156.72;;;29.72;42.47
14295;BME280;7231;59.370;18.016;2023-08-31T09:53:36;100154.56;;;29.49;41.47
14295;BME280;7231;59.370;18.016;2023-08-31T09:56:04;100156.28;;;28.90;41.80
14295;BME280;7231;59.370;18.016;2023-08-31T09:58:33;100161.34;;;28.64;42.01
14295;BME280;7231;59.370;18.016;2023-08-31T10:01:01;100163.06;;;28.65;42.07
14295;BME280;7231;59.370;18.016;2023-08-31T10:03:39;100164.28;;;28.91;42.60
14295;BME280;7231;59.370;18.016;2023-08-31T10:06:09;100165.38;;;29.49;42.47
14295;BME280;7231;59.370;18.016;2023-08-31T10:08:40;100155.78;;;29.87;41.89
14295;BME280;7231;59.370;18.016;2023-08-31T10:11:10;100168.84;;;30.09;41.04
14295;BME280;7231;59.370;18.016;2023-08-31T10:13:41;100160.63;;;30.11;40.31
14295;BME280;7231;59.370;18.016;2023-08-31T10:16:10;100164.84;;;29.86;40.44
14295;BME280;7231;59.370;18.016;2023-08-31T10:18:39;100145.53;;;29.34;41.07
14295;BME280;7231;59.370;18.016;2023-08-31T10:21:07;100164.53;;;29.32;40.54
14295;BME280;7231;59.370;18.016;2023-08-31T10:23:35;100158.13;;;29.19;40.29
14295;BME280;7231;59.370;18.016;2023-08-31T10:26:06;100166.47;;;29.30;40.32
14295;BME280;7231;59.370;18.016;2023-08-31T10:28:42;100133.88;;;29.33;40.49
14295;BME280;7231;59.370;18.016;2023-08-31T10:31:15;100160.59;;;29.68;39.63
14295;BME280;7231;59.370;18.016;2023-08-31T10:33:44;100163.41;;;29.81;40.28
14295;BME280;7231;59.370;18.016;2023-08-31T10:36:14;100165.63;;;30.31;39.64
14295;BME280;7231;59.370;18.016;2023-08-31T10:38:44;100160.91;;;30.34;38.81
14295;BME280;7231;59.370;18.016;2023-08-31T10:41:22;100171.28;;;30.55;38.57
14295;BME280;7231;59.370;18.016;2023-08-31T10:43:52;100152.91;;;30.74;38.27
14295;BME280;7231;59.370;18.016;2023-08-31T10:46:31;100144.88;;;30.31;38.16
14295;BME280;7231;59.370;18.016;2023-08-31T10:49:00;100151.72;;;30.23;39.21
14295;BME280;7231;59.370;18.016;2023-08-31T10:51:31;100154.41;;;30.37;38.47
14295;BME280;7231;59.370;18.016;2023-08-31T10:54:09;100163.88;;;30.58;38.97
14295;BME280;7231;59.370;18.016;2023-08-31T10:57:02;100153.09;;;30.98;38.75
14295;BME280;7231;59.370;18.016;2023-08-31T10:59:45;100133.88;;;31.28;37.38
14295;BME280;7231;59.370;18.016;2023-08-31T11:02:44;100152.22;;;31.50;36.84
14295;BME280;7231;59.370;18.016;2023-08-31T11:05:14;100154.63;;;31.54;37.04
14295;BME280;7231;59.370;18.016;2023-08-31T11:07:44;100150.28;;;31.64;36.35
14295;BME280;7231;59.370;18.016;2023-08-31T11:10:16;100134.03;;;31.52;36.49
14295;BME280;7231;59.370;18.016;2023-08-31T11:12:48;100154.72;;;31.53;35.73
14295;BME280;7231;59.370;18.016;2023-08-31T11:15:19;100114.88;;;31.03;36.48
14295;BME280;7231;59.370;18.016;2023-08-31T11:17:49;100149.75;;;30.53;36.40
14295;BME280;7231;59.370;18.016;2023-08-31T11:20:19;100140.69;;;29.55;37.48
14295;BME280;7231;59.370;18.016;2023-08-31T11:22:49;100145.69;;;28.87;38.78
14295;BME280;7231;59.370;18.016;2023-08-31T11:25:20;100147.06;;;28.94;38.67
14295;BME280;7231;59.370;18.016;2023-08-31T11:27:55;100120.06;;;28.94;38.77
14295;BME280;7231;59.370;18.016;2023-08-31T11:30:25;100139.00;;;29.08;38.84
14295;BME280;7231;59.370;18.016;2023-08-31T11:32:53;100126.22;;;29.26;39.01
14295;BME280;7231;59.370;18.016;2023-08-31T11:35:22;100138.19;;;29.52;37.98
14295;BME280;7231;59.370;18.016;2023-08-31T11:37:52;100137.59;;;29.17;37.90
14295;BME280;7231;59.370;18.016;2023-08-31T11:40:20;100124.25;;;28.84;38.06
14295;BME280;7231;59.370;18.016;2023-08-31T11:42:48;100133.56;;;28.78;38.90
14295;BME280;7231;59.370;18.016;2023-08-31T11:45:19;100133.59;;;29.08;38.79
14295;BME280;7231;59.370;18.016;2023-08-31T11:47:49;100129.59;;;29.45;38.15
14295;BME280;7231;59.370;18.016;2023-08-31T11:50:18;100119.19;;;29.53;37.92
14295;BME280;7231;59.370;18.016;2023-08-31T11:52:46;100136.66;;;29.62;38.40
14295;BME280;7231;59.370;18.016;2023-08-31T11:55:16;100124.97;;;29.61;37.88
14295;BME280;7231;59.370;18.016;2023-08-31T11:57:49;100135.31;;;29.69;37.20
14295;BME280;7231;59.370;18.016;2023-08-31T12:00:19;100132.13;;;29.77;37.13
14295;BME280;7231;59.370;18.016;2023-08-31T12:02:56;100135.22;;;29.99;37.41
14295;BME280;7231;59.370;18.016;2023-08-31T12:05:25;100123.91;;;30.21;37.30
14295;BME280;7231;59.370;18.016;2023-08-31T12:07:54;100124.38;;;30.27;37.36
14295;BME280;7231;59.370;18.016;2023-08-31T12:10:24;100116.06;;;30.30;36.78
14295;BME280;7231;59.370;18.016;2023-08-31T12:12:52;100129.47;;;30.60;36.80
14295;BME280;7231;59.370;18.016;2023-08-31T12:15:30;100129.22;;;30.78;35.87
14295;BME280;7231;59.370;18.016;2023-08-31T12:17:58;100119.19;;;30.65;35.98
14295;BME280;7231;59.370;18.016;2023-08-31T12:20:26;100133.53;;;30.80;35.81
14295;BME280;7231;59.370;18.016;2023-08-31T12:22:54;100126.78;;;31.00;35.27
14295;BME280;7231;59.370;18.016;2023-08-31T12:25:22;100136.03;;;31.23;34.68
14295;BME280;7231;59.370;18.016;2023-08-31T12:27:50;100137.91;;;31.35;35.31
14295;BME280;7231;59.370;18.016;2023-08-31T12:30:18;100131.97;;;31.68;35.00
14295;BME280;7231;59.370;18.016;2023-08-31T12:32:48;100131.13;;;31.80;34.84
14295;BME280;7231;59.370;18.016;2023-08-31T12:35:16;100137.47;;;31.28;34.94
14295;BME280;7231;59.370;18.016;2023-08-31T12:37:44;100130.75;;;31.21;35.04
14295;BME280;7231;59.370;18.016;2023-08-31T12:40:12;100135.97;;;31.50;34.84
14295;BME280;7231;59.370;18.016;2023-08-31T12:42:41;100119.97;;;31.72;34.52
14295;BME280;7231;59.370;18.016;2023-08-31T12:45:10;100124.78;;;32.18;34.59
14295;BME280;7231;59.370;18.016;2023-08-31T12:47:38;100130.06;;;32.45;33.91
14295;BME280;7231;59.370;18.016;2023-08-31T12:50:08;100127.31;;;32.08;33.42
14295;BME280;7231;59.370;18.016;2023-08-31T12:52:36;100106.94;;;31.64;33.37
14295;BME280;7231;59.370;18.016;2023-08-31T12:55:11;100135.66;;;31.42;33.44
14295;BME280;7231;59.370;18.016;2023-08-31T12:57:39;100144.53;;;30.50;35.39